createdAt,value
2024-01-07T00:00:50.634Z,17.70
2024-01-07T00:03:23.985Z,17.80
2024-01-07T00:05:52.410Z,17.50
2024-01-07T00:08:20.838Z,17.23
2024-01-07T00:10:49.241Z,17.20
2024-01-07T00:13:18.108Z,18.20
2024-01-07T00:15:46.488Z,18.70
2024-01-07T00:18:16.462Z,17.97
2024-01-07T00:20:45.765Z,19.47
2024-01-07T00:23:14.188Z,18.90
2024-01-07T00:25:42.525Z,19.80
2024-01-07T00:28:10.997Z,19.23
2024-01-07T00:30:39.381Z,18.63
2024-01-07T00:33:07.844Z,18.97
2024-01-07T00:35:37.616Z,18.87
2024-01-07T00:38:06.098Z,17.57
2024-01-07T00:40:34.426Z,18.03
2024-01-07T00:43:02.804Z,17.23
2024-01-07T00:45:31.214Z,15.83
2024-01-07T00:47:59.687Z,15.97
2024-01-07T00:50:28.117Z,17.70
2024-01-07T00:52:57.862Z,16.57
2024-01-07T00:55:26.277Z,15.57
2024-01-07T00:57:54.710Z,15.33
2024-01-07T01:00:23.779Z,16.97
2024-01-07T01:02:52.194Z,16.17
2024-01-07T01:05:20.582Z,15.23
2024-01-07T01:07:49.373Z,16.37
2024-01-07T01:10:20.052Z,15.57
2024-01-07T01:12:48.537Z,15.23
2024-01-07T01:15:17.702Z,14.07
2024-01-07T01:17:46.156Z,13.83
2024-01-07T01:20:14.599Z,14.80
2024-01-07T01:22:43.201Z,15.33
2024-01-07T01:25:12.072Z,14.50
2024-01-07T01:27:41.783Z,15.00
2024-01-07T01:30:10.937Z,14.30
2024-01-07T01:32:39.676Z,14.67
2024-01-07T01:35:08.595Z,15.63
2024-01-07T01:37:36.934Z,15.67
2024-01-07T01:40:06.000Z,15.37
2024-01-07T01:42:34.411Z,16.07
2024-01-07T01:45:04.202Z,15.33
2024-01-07T01:47:32.919Z,15.43
2024-01-07T01:50:00.483Z,16.20
2024-01-07T01:52:29.262Z,16.57
2024-01-07T01:54:57.740Z,17.03
2024-01-07T01:57:27.544Z,16.73
2024-01-07T01:59:55.822Z,17.57
2024-01-07T02:02:25.714Z,17.07
2024-01-07T02:04:54.181Z,17.83
2024-01-07T02:07:22.612Z,17.57
2024-01-07T02:09:50.976Z,18.27
2024-01-07T02:12:19.272Z,19.57
2024-01-07T02:14:47.637Z,19.40
2024-01-07T02:17:16.037Z,18.50
2024-01-07T02:19:46.026Z,19.53
2024-01-07T02:22:15.623Z,20.73
2024-01-07T02:24:45.338Z,19.40
2024-01-07T02:27:13.706Z,19.90
2024-01-07T02:29:42.097Z,19.70
2024-01-07T02:32:10.450Z,20.50
2024-01-07T02:34:38.755Z,20.70
2024-01-07T02:37:07.364Z,22.13
2024-01-07T02:39:35.860Z,20.57
2024-01-07T02:42:05.882Z,19.07
2024-01-07T02:44:34.232Z,20.93
2024-01-07T02:47:02.491Z,21.53
2024-01-07T02:49:31.110Z,19.27
2024-01-07T02:51:59.589Z,18.57
2024-01-07T02:54:27.894Z,18.93
2024-01-07T02:56:56.257Z,16.83
2024-01-07T02:59:25.967Z,16.77
2024-01-07T03:01:54.351Z,16.10
2024-01-07T03:04:22.671Z,16.67
2024-01-07T03:06:50.942Z,15.37
2024-01-07T03:09:19.255Z,15.17
2024-01-07T03:11:47.534Z,15.27
2024-01-07T03:14:18.039Z,14.23
2024-01-07T03:16:47.791Z,14.90
2024-01-07T03:19:16.172Z,16.13
2024-01-07T03:21:44.554Z,16.37
2024-01-07T03:24:13.421Z,15.03
2024-01-07T03:26:41.713Z,15.50
2024-01-07T03:29:10.033Z,14.77
2024-01-07T03:31:38.492Z,14.97
2024-01-07T03:34:08.374Z,13.43
2024-01-07T03:36:36.723Z,14.27
2024-01-07T03:39:05.101Z,13.83
2024-01-07T03:41:33.379Z,12.77
2024-01-07T03:44:01.713Z,12.37
2024-01-07T03:46:30.033Z,10.90
2024-01-07T03:48:58.483Z,11.77
2024-01-07T03:51:28.165Z,10.27
2024-01-07T03:53:56.492Z,10.77
2024-01-07T03:56:24.726Z,11.27
2024-01-07T03:58:53.049Z,11.30
2024-01-07T04:01:21.415Z,12.33
2024-01-07T04:03:49.988Z,11.17
2024-01-07T04:06:18.345Z,10.33
2024-01-07T04:08:48.024Z,11.73
2024-01-07T04:11:16.376Z,11.13
2024-01-07T04:13:44.630Z,11.47
2024-01-07T04:16:19.342Z,10.33
2024-01-07T04:18:51.746Z,10.00
2024-01-07T04:21:22.431Z,9.67
2024-01-07T04:23:52.152Z,9.77
2024-01-07T04:26:20.490Z,8.83
2024-01-07T04:28:48.885Z,8.50
2024-01-07T04:31:17.499Z,7.77
2024-01-07T04:33:45.984Z,10.10
2024-01-07T04:36:14.298Z,9.07
2024-01-07T04:38:42.595Z,10.50
2024-01-07T04:41:12.188Z,10.63
2024-01-07T04:43:41.594Z,11.53
2024-01-07T04:46:11.715Z,11.87
2024-01-07T04:48:40.311Z,12.27
2024-01-07T04:51:09.018Z,11.30
2024-01-07T04:53:37.284Z,11.97
2024-01-07T04:56:06.240Z,11.17
2024-01-07T04:58:35.906Z,10.70
2024-01-07T05:01:04.356Z,10.27
2024-01-07T05:03:33.289Z,10.33
2024-01-07T05:06:03.003Z,10.20
2024-01-07T05:08:31.353Z,10.47
2024-01-07T05:10:59.577Z,9.60
2024-01-07T05:13:27.848Z,11.63
2024-01-07T05:15:57.544Z,12.77
2024-01-07T05:18:26.448Z,12.90
2024-01-07T05:20:55.019Z,13.23
2024-01-07T05:23:23.424Z,12.80
2024-01-07T05:25:51.844Z,14.50
2024-01-07T05:28:22.087Z,13.77
2024-01-07T05:30:50.839Z,16.10
2024-01-07T05:33:20.597Z,15.80
2024-01-07T05:35:48.994Z,17.10
2024-01-07T05:38:17.277Z,18.10
2024-01-07T05:40:45.556Z,19.33
2024-01-07T05:43:13.877Z,18.97
2024-01-07T05:45:42.250Z,19.50
2024-01-07T05:48:10.629Z,21.23
2024-01-07T05:50:42.190Z,22.13
2024-01-07T05:53:10.455Z,23.20
2024-01-07T05:55:38.748Z,24.03
2024-01-07T05:58:07.246Z,23.03
2024-01-07T06:00:35.682Z,24.47
2024-01-07T06:03:04.117Z,24.70
2024-01-07T06:05:32.446Z,23.10
2024-01-07T06:08:02.169Z,25.70
2024-01-07T06:10:30.889Z,23.47
2024-01-07T06:12:59.275Z,23.40
2024-01-07T06:15:27.640Z,22.97
2024-01-07T06:17:56.300Z,24.03
2024-01-07T06:20:24.608Z,23.00
2024-01-07T06:22:52.990Z,22.73
2024-01-07T06:25:22.836Z,24.23
2024-01-07T06:27:51.348Z,24.43
2024-01-07T06:30:20.321Z,24.17
2024-01-07T06:32:49.368Z,24.23
2024-01-07T06:35:17.829Z,23.60
2024-01-07T06:37:46.413Z,24.10
2024-01-07T06:40:14.822Z,26.07
2024-01-07T06:42:45.821Z,25.07
2024-01-07T06:45:14.124Z,23.57
2024-01-07T06:47:42.512Z,26.10
2024-01-07T06:50:11.899Z,25.30
2024-01-07T06:52:40.248Z,26.23
2024-01-07T06:55:09.202Z,24.73
2024-01-07T06:57:37.545Z,24.03
2024-01-07T07:00:08.988Z,25.03
2024-01-07T07:02:37.373Z,25.50
2024-01-07T07:05:06.061Z,25.67
2024-01-07T07:07:34.530Z,25.27
2024-01-07T07:10:03.473Z,25.53
2024-01-07T07:12:31.822Z,23.33
2024-01-07T07:15:00.215Z,25.93
2024-01-07T07:17:29.838Z,25.00
2024-01-07T07:19:58.489Z,25.47
2024-01-07T07:22:26.874Z,25.47
2024-01-07T07:24:56.353Z,24.97
2024-01-07T07:27:25.912Z,25.70
2024-01-07T07:29:54.301Z,24.47
2024-01-07T07:32:22.602Z,26.17
2024-01-07T07:34:52.308Z,25.80
2024-01-07T07:37:21.592Z,27.10
2024-01-07T07:39:50.608Z,24.67
2024-01-07T07:42:19.017Z,27.23
2024-01-07T07:44:47.298Z,28.13
2024-01-07T07:47:15.571Z,26.43
2024-01-07T07:49:44.005Z,26.73
2024-01-07T07:52:15.369Z,26.00
2024-01-07T07:54:43.697Z,25.43
2024-01-07T07:57:12.059Z,27.17
2024-01-07T07:59:40.382Z,27.47
2024-01-07T08:02:08.866Z,26.83
2024-01-07T08:04:37.276Z,28.33
2024-01-07T08:07:05.766Z,27.83
2024-01-07T08:09:37.953Z,24.97
2024-01-07T08:12:06.767Z,22.53
2024-01-07T08:14:35.477Z,22.17
2024-01-07T08:17:05.786Z,23.33
2024-01-07T08:19:34.284Z,21.40
2024-01-07T08:22:02.724Z,19.90
2024-01-07T08:24:31.076Z,18.87
2024-01-07T08:27:01.094Z,19.40
2024-01-07T08:29:29.519Z,19.60
2024-01-07T08:31:57.902Z,19.03
2024-01-07T08:34:26.643Z,17.07
2024-01-07T08:36:57.909Z,17.00
2024-01-07T08:39:27.028Z,16.03
2024-01-07T08:41:56.138Z,21.93
2024-01-07T08:44:25.823Z,19.03
2024-01-07T08:46:54.117Z,19.37
2024-01-07T08:49:22.582Z,17.97
2024-01-07T08:51:51.007Z,17.83
2024-01-07T08:54:19.413Z,17.60
2024-01-07T08:56:47.849Z,17.63
2024-01-07T08:59:16.363Z,17.50
2024-01-07T09:01:46.218Z,17.27
2024-01-07T09:04:14.782Z,16.17
2024-01-07T09:06:43.264Z,16.13
2024-01-07T09:09:11.887Z,16.60
2024-01-07T09:11:40.212Z,15.00
2024-01-07T09:14:09.370Z,15.30
2024-01-07T09:16:37.829Z,15.70
2024-01-07T09:19:07.658Z,15.80
2024-01-07T09:21:36.170Z,15.63
2024-01-07T09:24:06.437Z,15.40
2024-01-07T09:26:34.821Z,15.40
2024-01-07T09:29:03.655Z,15.83
2024-01-07T09:31:32.318Z,15.80
2024-01-07T09:34:00.841Z,16.37
2024-01-07T09:36:31.254Z,17.33
2024-01-07T09:38:59.740Z,17.30
2024-01-07T09:41:28.171Z,18.67
2024-01-07T09:43:58.779Z,18.23
2024-01-07T09:46:27.415Z,18.80
2024-01-07T09:48:55.868Z,18.57
2024-01-07T09:51:25.022Z,17.70
2024-01-07T09:53:58.215Z,18.80
2024-01-07T09:56:28.539Z,19.40
2024-01-07T09:58:56.951Z,18.80
2024-01-07T10:01:25.462Z,20.20
2024-01-07T10:03:53.924Z,18.90
2024-01-07T10:06:23.611Z,19.43
2024-01-07T10:08:52.419Z,20.53
2024-01-07T10:11:23.961Z,18.50
2024-01-07T10:13:52.601Z,17.13
2024-01-07T10:16:20.976Z,16.23
2024-01-07T10:18:49.427Z,16.67
2024-01-07T10:21:18.547Z,16.13
2024-01-07T10:23:47.474Z,18.03
2024-01-07T10:26:23.610Z,18.10
2024-01-07T10:28:57.563Z,16.93
2024-01-07T10:31:26.841Z,17.03
2024-01-07T10:33:55.432Z,18.13
2024-01-07T10:36:25.234Z,16.67
2024-01-07T10:38:53.675Z,18.13
2024-01-07T10:41:22.296Z,18.37
2024-01-07T10:43:51.643Z,18.63
2024-01-07T10:46:21.377Z,17.13
2024-01-07T10:48:56.525Z,17.67
2024-01-07T10:51:24.945Z,17.37
2024-01-07T10:53:55.689Z,17.60
2024-01-07T10:56:25.868Z,17.93
2024-01-07T10:58:55.582Z,17.90
2024-01-07T11:01:25.718Z,16.90
2024-01-07T11:03:57.489Z,17.50
2024-01-07T11:06:29.629Z,17.37
2024-01-07T11:09:01.316Z,16.10
2024-01-07T11:11:30.396Z,15.33
2024-01-07T11:14:03.169Z,17.03
2024-01-07T11:16:45.772Z,15.60
2024-01-07T11:19:16.868Z,15.90
2024-01-07T11:21:45.429Z,14.97
2024-01-07T11:24:34.000Z,14.10
2024-01-07T11:27:04.471Z,15.37
2024-01-07T11:29:34.399Z,15.73
2024-01-07T11:32:04.227Z,15.73
2024-01-07T11:34:42.947Z,14.93
2024-01-07T11:37:13.712Z,14.60
2024-01-07T11:39:42.332Z,15.17
2024-01-07T11:42:10.843Z,15.20
2024-01-07T11:44:39.226Z,14.63
2024-01-07T11:47:09.288Z,15.33
2024-01-07T11:49:37.780Z,14.87
2024-01-07T11:52:07.742Z,14.17
2024-01-07T11:54:36.316Z,13.27
2024-01-07T11:57:05.077Z,13.83
2024-01-07T11:59:33.892Z,14.53
2024-01-07T12:02:03.087Z,14.83
2024-01-07T12:04:33.464Z,13.47
2024-01-07T12:07:02.992Z,14.13
2024-01-07T12:09:32.020Z,14.00
2024-01-07T12:12:01.148Z,14.63
2024-01-07T12:14:30.245Z,13.93
2024-01-07T12:16:59.161Z,13.90
2024-01-07T12:19:27.948Z,15.80
2024-01-07T12:22:05.824Z,14.70
2024-01-07T12:24:37.463Z,14.07
2024-01-07T12:27:09.453Z,15.37
2024-01-07T12:29:38.280Z,15.53
2024-01-07T12:32:10.669Z,14.90
2024-01-07T12:34:39.992Z,15.97
2024-01-07T12:37:15.543Z,14.27
2024-01-07T12:39:44.338Z,15.67
2024-01-07T12:42:14.838Z,14.93
2024-01-07T12:44:43.844Z,14.60
2024-01-07T12:47:12.575Z,15.17
2024-01-07T12:49:41.436Z,14.37
2024-01-07T12:52:11.557Z,16.60
2024-01-07T12:54:41.421Z,14.27
2024-01-07T12:57:10.727Z,15.30
2024-01-07T12:59:39.445Z,13.77
2024-01-07T13:02:09.015Z,14.83
2024-01-07T13:04:37.812Z,15.13
2024-01-07T13:07:06.844Z,15.07
2024-01-07T13:09:37.180Z,14.77
2024-01-07T13:12:06.458Z,16.20
2024-01-07T13:14:36.849Z,14.03
2024-01-07T13:17:05.686Z,14.47
2024-01-07T13:19:34.489Z,14.90
2024-01-07T13:22:03.247Z,14.43
2024-01-07T13:24:34.300Z,14.67
2024-01-07T13:27:05.167Z,14.67
2024-01-07T13:29:35.024Z,14.03
2024-01-07T13:32:03.992Z,14.07
2024-01-07T13:34:32.877Z,13.33
2024-01-07T13:37:01.744Z,13.30
2024-01-07T13:39:31.799Z,13.30
2024-01-07T13:42:00.561Z,14.50
2024-01-07T13:44:31.477Z,13.00
2024-01-07T13:47:00.027Z,13.30
2024-01-07T13:49:28.950Z,13.67
2024-01-07T13:51:57.675Z,14.30
2024-01-07T13:54:26.846Z,13.93
2024-01-07T13:56:55.530Z,13.17
2024-01-07T13:59:24.406Z,14.20
2024-01-07T14:01:54.550Z,13.63
2024-01-07T14:04:23.766Z,12.67
2024-01-07T14:06:56.443Z,13.43
2024-01-07T14:09:25.671Z,13.60
2024-01-07T14:11:54.462Z,14.13
2024-01-07T14:14:23.106Z,12.83
2024-01-07T14:16:51.683Z,13.53
2024-01-07T14:19:23.507Z,13.53
2024-01-07T14:21:53.743Z,11.77
2024-01-07T14:24:22.361Z,11.90
2024-01-07T14:26:51.191Z,11.63
2024-01-07T14:29:19.695Z,12.53
2024-01-07T14:31:49.382Z,11.07
2024-01-07T14:34:18.134Z,11.17
2024-01-07T14:36:48.221Z,11.27
2024-01-07T14:39:16.859Z,11.27
2024-01-07T14:41:45.589Z,9.90
2024-01-07T14:44:16.333Z,10.80
2024-01-07T14:46:45.300Z,10.30
2024-01-07T14:49:13.939Z,10.07
2024-01-07T14:51:42.637Z,9.50
2024-01-07T14:54:12.440Z,9.83
2024-01-07T14:56:40.964Z,9.53
2024-01-07T14:59:09.536Z,9.80
2024-01-07T15:01:38.031Z,9.47
2024-01-07T15:04:06.884Z,9.60
2024-01-07T15:06:42.242Z,8.53
2024-01-07T15:09:14.816Z,8.70
2024-01-07T15:11:46.141Z,8.63
2024-01-07T15:14:14.849Z,6.67
2024-01-07T15:16:43.823Z,7.10
2024-01-07T15:19:12.780Z,6.53
2024-01-07T15:21:41.316Z,6.50
2024-01-07T15:24:10.165Z,6.40
2024-01-07T15:26:40.470Z,6.23
2024-01-07T15:29:08.924Z,6.00
2024-01-07T15:31:37.669Z,5.57
2024-01-07T15:34:06.397Z,5.77
2024-01-07T15:36:35.289Z,4.93
2024-01-07T15:39:05.741Z,5.03
2024-01-07T15:41:34.238Z,4.90
2024-01-07T15:44:04.035Z,5.10
2024-01-07T15:46:32.472Z,5.30
2024-01-07T15:49:01.002Z,5.13
2024-01-07T15:51:29.538Z,5.50
2024-01-07T15:53:57.924Z,5.47
2024-01-07T15:56:26.288Z,5.73
2024-01-07T15:58:54.739Z,5.20
2024-01-07T16:01:24.675Z,5.97
2024-01-07T16:03:53.549Z,5.67
2024-01-07T16:06:22.277Z,5.40
2024-01-07T16:08:50.847Z,5.33
2024-01-07T16:11:19.362Z,5.03
2024-01-07T16:13:47.983Z,4.80
2024-01-07T16:16:16.842Z,5.40
2024-01-07T16:18:56.747Z,4.30
2024-01-07T16:21:30.162Z,5.40
2024-01-07T16:23:58.922Z,4.90
2024-01-07T16:26:27.664Z,4.63
2024-01-07T16:28:56.352Z,4.80
2024-01-07T16:33:55.011Z,4.07
2024-01-07T16:36:23.919Z,4.30
2024-01-07T16:38:52.919Z,5.03
2024-01-07T16:41:21.666Z,6.00
2024-01-07T16:43:50.657Z,4.03
2024-01-07T16:46:19.548Z,4.20
2024-01-07T16:51:21.633Z,3.70
2024-01-07T16:53:50.468Z,4.53
2024-01-07T16:56:19.333Z,4.57
2024-01-07T16:58:48.185Z,4.50
2024-01-07T17:01:20.460Z,4.77
2024-01-07T17:03:50.644Z,3.60
2024-01-07T17:06:19.280Z,3.70
2024-01-07T17:08:49.241Z,4.23
2024-01-07T17:11:20.425Z,4.60
2024-01-07T17:13:49.255Z,4.07
2024-01-07T17:16:17.972Z,4.00
2024-01-07T17:18:46.560Z,4.07
2024-01-07T17:21:15.339Z,3.80
2024-01-07T17:23:48.338Z,4.30
2024-01-07T17:26:18.317Z,3.97
2024-01-07T17:28:46.948Z,4.20
2024-01-07T17:31:15.756Z,4.30
2024-01-07T17:33:44.755Z,4.13
2024-01-07T17:36:16.548Z,3.37
2024-01-07T17:38:45.542Z,3.93
2024-01-07T17:41:14.275Z,3.30
2024-01-07T17:43:44.464Z,3.27
2024-01-07T17:46:13.262Z,3.90
2024-01-07T17:48:41.956Z,3.60
2024-01-07T17:51:10.479Z,3.27
2024-01-07T17:53:42.220Z,3.63
2024-01-07T17:56:15.941Z,3.97
2024-01-07T17:58:46.175Z,3.63
2024-01-07T18:01:14.964Z,3.50
2024-01-07T18:03:44.018Z,3.80
2024-01-07T18:06:13.243Z,4.20
2024-01-07T18:08:47.105Z,3.87
2024-01-07T18:11:21.177Z,4.57
2024-01-07T18:13:51.512Z,4.20
2024-01-07T18:16:20.187Z,4.00
2024-01-07T18:18:49.088Z,4.57
2024-01-07T18:21:17.889Z,4.30
2024-01-07T18:23:46.811Z,3.97
2024-01-07T18:26:15.611Z,4.37
2024-01-07T18:28:46.482Z,3.73
2024-01-07T18:31:17.165Z,4.00
2024-01-07T18:33:46.169Z,3.53
2024-01-07T18:36:16.458Z,3.67
2024-01-07T18:38:45.022Z,4.10
2024-01-07T18:41:22.518Z,3.80
2024-01-07T18:43:53.428Z,4.00
2024-01-07T18:46:23.687Z,3.70
2024-01-07T18:48:52.475Z,3.73
2024-01-07T18:51:23.789Z,3.43
2024-01-07T18:53:52.634Z,3.53
2024-01-07T18:56:22.354Z,4.17
2024-01-07T18:58:51.439Z,3.57
2024-01-07T19:01:20.372Z,3.60
2024-01-07T19:03:50.800Z,3.60
2024-01-07T19:06:19.661Z,3.60
2024-01-07T19:08:49.152Z,4.13
2024-01-07T19:11:18.094Z,3.57
2024-01-07T19:13:46.887Z,3.60
2024-01-07T19:16:17.252Z,3.60
2024-01-07T19:18:46.051Z,3.83
2024-01-07T19:21:19.361Z,3.53
2024-01-07T19:23:48.257Z,3.80
2024-01-07T19:26:17.267Z,3.83
2024-01-07T19:28:46.120Z,4.10
2024-01-07T19:31:14.956Z,3.50
2024-01-07T19:33:44.781Z,4.17
2024-01-07T19:36:13.780Z,3.30
2024-01-07T19:38:44.125Z,3.40
2024-01-07T19:41:22.642Z,3.30
2024-01-07T19:43:52.764Z,3.60
2024-01-07T19:46:28.167Z,3.80
2024-01-07T19:48:58.809Z,3.47
2024-01-07T19:51:27.824Z,3.73
2024-01-07T19:53:58.953Z,3.40
2024-01-07T19:56:27.877Z,4.27
2024-01-07T19:58:57.015Z,3.07
2024-01-07T20:01:25.821Z,3.33
2024-01-07T20:03:55.182Z,3.50
2024-01-07T20:06:24.632Z,2.80
2024-01-07T20:08:53.843Z,3.03
2024-01-07T20:11:25.476Z,2.70
2024-01-07T20:13:55.117Z,2.57
2024-01-07T20:16:23.920Z,2.93
2024-01-07T20:18:53.900Z,3.50
2024-01-07T20:21:24.830Z,2.80
2024-01-07T20:23:55.859Z,3.17
2024-01-07T20:26:26.244Z,3.20
2024-01-07T20:28:57.842Z,3.10
2024-01-07T20:31:27.117Z,3.10
2024-01-07T20:33:55.996Z,3.17
2024-01-07T20:36:24.884Z,3.27
2024-01-07T20:38:53.921Z,3.60
2024-01-07T20:41:23.950Z,2.93
2024-01-07T20:43:55.241Z,2.63
2024-01-07T20:46:24.070Z,2.60
2024-01-07T20:48:53.057Z,3.10
2024-01-07T20:51:30.429Z,3.50
2024-01-07T20:54:00.366Z,4.70
2024-01-07T20:56:36.004Z,4.47
2024-01-07T20:59:08.269Z,4.63
2024-01-07T21:01:37.904Z,5.23
2024-01-07T21:04:07.688Z,5.00
2024-01-07T21:06:36.575Z,5.07
2024-01-07T21:09:05.756Z,5.70
2024-01-07T21:11:35.257Z,5.23
2024-01-07T21:14:04.138Z,5.17
2024-01-07T21:16:34.344Z,5.33
2024-01-07T21:19:03.958Z,4.67
2024-01-07T21:21:32.755Z,4.53
2024-01-07T21:24:01.544Z,4.03
2024-01-07T21:26:31.742Z,4.53
2024-01-07T21:29:00.505Z,5.10
2024-01-07T21:31:29.336Z,5.17
2024-01-07T21:33:59.534Z,4.70
2024-01-07T21:36:28.435Z,5.03
2024-01-07T21:38:57.121Z,5.17
2024-01-07T21:41:25.772Z,4.77
2024-01-07T21:43:54.545Z,4.90
2024-01-07T21:46:23.342Z,4.57
2024-01-07T21:48:53.588Z,4.77
2024-01-07T21:51:23.695Z,4.03
2024-01-07T21:53:52.374Z,5.23
2024-01-07T21:56:21.084Z,4.80
2024-01-07T21:58:49.948Z,4.97
2024-01-07T22:01:18.747Z,4.63
2024-01-07T22:03:47.523Z,5.40
2024-01-07T22:06:16.497Z,4.80
2024-01-07T22:08:46.645Z,4.20
2024-01-07T22:11:17.680Z,4.40
2024-01-07T22:13:46.943Z,5.07
2024-01-07T22:16:15.864Z,4.70
2024-01-07T22:18:45.087Z,4.90
2024-01-07T22:21:19.840Z,4.43
2024-01-07T22:23:50.550Z,4.97
2024-01-07T22:26:19.441Z,5.63
2024-01-07T22:28:48.239Z,5.37
2024-01-07T22:31:17.442Z,5.37
2024-01-07T22:33:47.963Z,4.63
2024-01-07T22:36:17.028Z,5.07
2024-01-07T22:38:45.898Z,4.80
2024-01-07T22:41:16.291Z,5.10
2024-01-07T22:43:47.301Z,5.07
2024-01-07T22:46:16.714Z,4.50
2024-01-07T22:48:48.112Z,4.77
2024-01-07T22:51:16.720Z,5.73
2024-01-07T22:53:45.277Z,4.90
2024-01-07T22:56:14.082Z,4.87
2024-01-07T22:58:43.997Z,5.07
2024-01-07T23:01:12.513Z,4.77
2024-01-07T23:03:41.327Z,4.77
2024-01-07T23:06:10.760Z,5.27
2024-01-07T23:08:39.581Z,5.33
2024-01-07T23:11:08.457Z,4.60
2024-01-07T23:13:38.093Z,4.93
2024-01-07T23:16:12.920Z,4.57
2024-01-07T23:18:41.694Z,5.30
2024-01-07T23:21:10.946Z,4.23
2024-01-07T23:23:39.534Z,4.57
2024-01-07T23:26:08.183Z,4.33
2024-01-07T23:28:36.678Z,4.40
2024-01-07T23:31:05.136Z,4.37
2024-01-07T23:33:35.088Z,4.50
2024-01-07T23:36:07.545Z,4.37
2024-01-07T23:38:36.701Z,3.97
2024-01-07T23:41:06.390Z,3.80
2024-01-07T23:43:37.095Z,4.43
2024-01-07T23:46:07.170Z,4.30
2024-01-07T23:48:38.224Z,3.87
2024-01-07T23:51:06.910Z,4.70
2024-01-07T23:53:35.261Z,4.37
2024-01-07T23:56:03.641Z,4.67
2024-01-07T23:58:32.164Z,4.10
